Time;durP1;ratioP1;P1;durP2;ratioP2;P2;SDS_P1;SDS_P2;PMS_P1;PMS_P2;Temp;Humidity;BMP_temperature;BMP_pressure;BME280_temperature;BME280_humidity;BME280_pressure;Samples;Min_cycle;Max_cycle;Signal;HPM_P1;HPM_P2
2022/04/18 00:01:53;;;;;;;10.00;9.13;;;7.10;99.90;;;;;;6280816;28;20221;-56
2022/04/18 00:04:56;;;;;;;9.83;8.77;;;7.00;99.90;;;;;;6279182;28;20242;-57
2022/04/18 00:07:59;;;;;;;9.60;8.73;;;7.00;99.90;;;;;;6279544;28;20645;-55
2022/04/18 00:11:02;;;;;;;9.50;8.80;;;7.00;99.90;;;;;;6282893;28;20323;-55
2022/04/18 00:14:05;;;;;;;9.33;8.63;;;7.20;99.90;;;;;;6282760;28;20306;-56
2022/04/18 00:17:09;;;;;;;10.03;9.07;;;7.10;99.90;;;;;;6265715;28;20324;-54
2022/04/18 00:20:12;;;;;;;10.23;9.20;;;6.90;99.90;;;;;;6257954;28;20264;-55
2022/04/18 00:23:15;;;;;;;9.10;8.50;;;6.90;99.90;;;;;;6257780;28;20841;-56
2022/04/18 00:26:18;;;;;;;9.67;8.90;;;6.80;99.90;;;;;;6263034;28;20338;-56
2022/04/18 00:29:21;;;;;;;11.07;10.23;;;6.90;99.90;;;;;;6286253;28;20319;-56
2022/04/18 00:32:25;;;;;;;10.67;9.77;;;6.70;99.90;;;;;;6287087;28;20312;-55
2022/04/18 00:35:28;;;;;;;9.47;8.77;;;6.70;99.90;;;;;;6279439;28;20376;-56
2022/04/18 00:38:30;;;;;;;10.23;9.33;;;6.60;99.90;;;;;;6277819;28;20271;-54
2022/04/18 00:41:33;;;;;;;9.57;8.77;;;6.70;99.90;;;;;;6278021;28;20507;-55
2022/04/18 00:44:36;;;;;;;9.37;8.57;;;6.60;99.90;;;;;;6262692;28;20490;-57
2022/04/18 00:47:40;;;;;;;10.57;9.57;;;6.60;99.90;;;;;;6261895;28;20368;-56
2022/04/18 00:50:43;;;;;;;10.60;9.67;;;6.50;99.90;;;;;;6262126;28;20556;-57
2022/04/18 00:53:46;;;;;;;11.07;10.03;;;6.40;99.90;;;;;;6262401;28;20363;-54
2022/04/18 00:56:49;;;;;;;10.93;9.93;;;6.50;99.90;;;;;;6262259;28;20234;-56
2022/04/18 00:59:52;;;;;;;10.77;9.87;;;6.70;99.90;;;;;;6261419;28;20347;-57
2022/04/18 01:02:56;;;;;;;11.97;10.80;;;6.40;99.90;;;;;;6281485;28;20225;-56
2022/04/18 01:05:59;;;;;;;12.83;11.70;;;6.60;99.90;;;;;;6274233;28;20234;-56
2022/04/18 01:09:03;;;;;;;12.30;11.20;;;6.50;99.90;;;;;;6282750;28;20356;-57
2022/04/18 01:12:06;;;;;;;11.90;10.90;;;6.60;99.90;;;;;;6282746;28;20226;-57
2022/04/18 01:15:10;;;;;;;11.93;10.73;;;6.60;99.90;;;;;;6261671;28;20241;-55
2022/04/18 01:18:14;;;;;;;12.33;11.23;;;6.50;99.90;;;;;;6261603;28;20284;-57
2022/04/18 01:21:19;;;;;;;12.33;11.13;;;6.30;99.90;;;;;;6262066;28;20242;-57
2022/04/18 01:31:03;;;;;;;12.60;11.37;;;6.50;99.90;;;;;;6268720;28;20711;-56
2022/04/18 01:34:07;;;;;;;12.17;11.20;;;6.40;99.90;;;;;;6268695;28;20350;-56
2022/04/18 01:37:11;;;;;;;12.47;11.27;;;6.20;99.90;;;;;;6285299;28;20237;-56
2022/04/18 01:40:14;;;;;;;12.90;11.70;;;6.30;99.90;;;;;;6285280;28;20750;-55
2022/04/18 01:43:17;;;;;;;13.27;11.87;;;6.40;99.90;;;;;;6285963;28;20367;-55
2022/04/18 01:46:20;;;;;;;13.07;11.87;;;6.30;99.90;;;;;;6260307;28;20248;-55
2022/04/18 01:49:23;;;;;;;13.13;11.93;;;6.20;99.90;;;;;;6251169;28;20543;-57
2022/04/18 01:52:27;;;;;;;12.03;10.90;;;6.10;99.90;;;;;;6260603;28;20259;-55
2022/04/18 01:55:31;;;;;;;13.63;12.43;;;6.40;99.90;;;;;;6260048;28;20392;-57
2022/04/18 01:58:33;;;;;;;14.07;12.77;;;6.10;99.90;;;;;;6260960;28;20845;-56
2022/04/18 02:01:36;;;;;;;12.67;11.53;;;6.30;99.90;;;;;;6263349;28;20229;-57
2022/04/18 02:04:39;;;;;;;14.33;12.83;;;6.00;99.90;;;;;;6284041;28;20279;-56
2022/04/18 02:07:43;;;;;;;13.53;12.30;;;6.10;99.90;;;;;;6270124;28;20232;-57
2022/04/18 02:10:46;;;;;;;15.63;13.93;;;5.90;99.90;;;;;;6277055;28;20366;-56
2022/04/18 02:13:49;;;;;;;15.10;13.70;;;6.10;99.90;;;;;;6285447;28;20280;-55
2022/04/18 02:16:52;;;;;;;14.90;13.50;;;5.90;99.90;;;;;;6283620;28;20275;-56
2022/04/18 02:19:55;;;;;;;16.00;14.43;;;6.00;99.90;;;;;;6285873;28;20497;-57
2022/04/18 02:23:00;;;;;;;18.40;16.43;;;5.90;99.90;;;;;;6285052;28;20310;-57
2022/04/18 02:26:02;;;;;;;17.20;15.60;;;6.00;99.90;;;;;;6275557;28;20529;-55
2022/04/18 02:29:05;;;;;;;18.73;15.77;;;5.90;99.90;;;;;;6283886;28;20225;-56
2022/04/18 02:35:29;;;;;;;16.10;14.50;;;6.10;99.90;;;;;;6278887;28;20238;-56
2022/04/18 02:38:33;;;;;;;16.07;14.30;;;6.00;99.90;;;;;;6289083;28;20316;-55
2022/04/18 02:41:36;;;;;;;16.37;14.77;;;6.00;99.90;;;;;;6285716;28;20832;-55
2022/04/18 02:44:42;;;;;;;17.87;14.33;;;5.80;99.90;;;;;;6271944;28;20242;-55
2022/04/18 02:47:45;;;;;;;15.73;14.13;;;5.80;99.90;;;;;;6259632;28;20229;-55
2022/04/18 02:50:47;;;;;;;15.40;13.80;;;5.90;99.90;;;;;;6259280;28;20233;-57
2022/04/18 02:53:53;;;;;;;14.47;13.17;;;5.90;99.90;;;;;;6259342;28;20305;-55
2022/04/18 02:56:55;;;;;;;14.50;13.20;;;5.80;99.90;;;;;;6259021;28;20380;-57
2022/04/18 02:59:58;;;;;;;15.53;13.93;;;5.90;99.90;;;;;;6258617;28;20817;-56
2022/04/18 03:03:01;;;;;;;14.20;12.87;;;5.80;99.90;;;;;;6279780;28;20678;-56
2022/04/18 03:06:05;;;;;;;14.80;13.40;;;5.80;99.90;;;;;;6284306;28;20256;-56
2022/04/18 03:09:09;;;;;;;15.97;14.40;;;5.90;99.90;;;;;;6284820;28;20262;-56
2022/04/18 03:12:12;;;;;;;13.80;12.40;;;5.70;99.90;;;;;;6283424;28;20292;-56
2022/04/18 03:15:14;;;;;;;13.43;12.23;;;5.80;99.90;;;;;;6283556;28;20328;-57
2022/04/18 03:18:17;;;;;;;13.57;12.33;;;5.70;99.90;;;;;;6268870;28;20642;-57
2022/04/18 03:21:20;;;;;;;13.20;12.00;;;5.80;99.90;;;;;;6259246;28;20385;-57
2022/04/18 03:24:24;;;;;;;13.47;12.20;;;5.80;99.90;;;;;;6258171;28;20323;-55
2022/04/18 03:27:27;;;;;;;12.87;11.77;;;5.50;99.90;;;;;;6272666;28;20382;-57
2022/04/18 03:30:29;;;;;;;13.17;11.97;;;5.60;99.90;;;;;;6275938;28;20790;-55
2022/04/18 03:33:32;;;;;;;14.13;12.83;;;5.80;99.90;;;;;;6264699;28;20549;-54
2022/04/18 03:39:57;;;;;;;12.73;11.53;;;5.50;99.90;;;;;;6286183;28;20464;-55
2022/04/18 03:43:00;;;;;;;13.50;12.20;;;5.40;99.90;;;;;;6276822;28;20249;-56
2022/04/18 03:46:02;;;;;;;11.97;10.97;;;5.80;99.90;;;;;;6282005;28;20449;-55
2022/04/18 03:49:05;;;;;;;13.30;12.00;;;5.80;99.90;;;;;;6278782;28;20244;-55
2022/04/18 03:52:09;;;;;;;12.63;11.43;;;5.50;99.90;;;;;;6282529;28;20290;-56
2022/04/18 03:55:13;;;;;;;14.30;12.40;;;5.60;99.90;;;;;;6281807;28;20252;-54
2022/04/18 03:58:16;;;;;;;13.13;11.90;;;5.40;99.90;;;;;;6277939;28;20304;-57
2022/04/18 04:01:19;;;;;;;12.60;11.33;;;5.40;99.90;;;;;;6281531;28;20323;-56
2022/04/18 04:04:22;;;;;;;14.60;12.23;;;5.50;99.90;;;;;;6284430;28;20267;-54
2022/04/18 04:07:25;;;;;;;14.60;12.97;;;5.30;99.90;;;;;;6278523;28;20313;-56
2022/04/18 04:10:29;;;;;;;13.77;12.50;;;5.40;99.90;;;;;;6277958;28;20689;-56
2022/04/18 04:13:32;;;;;;;14.23;12.70;;;5.20;99.90;;;;;;6276603;28;20505;-56
2022/04/18 04:16:34;;;;;;;16.17;14.40;;;5.60;99.90;;;;;;6274011;28;20391;-55
2022/04/18 04:19:38;;;;;;;15.20;13.60;;;5.30;99.90;;;;;;6273130;28;20380;-57
2022/04/18 04:22:44;;;;;;;16.20;14.50;;;5.50;99.90;;;;;;6281480;28;20734;-56
2022/04/18 04:25:48;;;;;;;14.80;13.30;;;5.30;99.90;;;;;;6277224;28;20302;-57
2022/04/18 04:28:51;;;;;;;14.67;13.20;;;5.30;99.90;;;;;;6275111;28;20379;-57
2022/04/18 04:31:53;;;;;;;16.70;13.53;;;5.60;99.90;;;;;;6281419;28;20241;-56
2022/04/18 04:34:56;;;;;;;14.53;13.13;;;5.30;99.90;;;;;;6274089;28;20229;-56
2022/04/18 04:37:59;;;;;;;15.47;12.80;;;5.20;99.90;;;;;;6284613;28;20382;-57
2022/04/18 04:41:03;;;;;;;15.77;13.60;;;5.20;99.90;;;;;;6282008;28;20906;-56
2022/04/18 04:44:06;;;;;;;15.73;14.03;;;5.10;99.90;;;;;;6281713;28;20474;-54
2022/04/18 04:47:09;;;;;;;15.27;13.77;;;5.20;99.90;;;;;;6279322;28;20728;-56
2022/04/18 04:50:12;;;;;;;18.40;13.90;;;5.30;99.90;;;;;;6282777;28;20526;-56
2022/04/18 04:53:15;;;;;;;15.33;13.73;;;5.30;99.90;;;;;;6280416;28;20264;-55
2022/04/18 04:56:21;;;;;;;15.87;14.37;;;5.30;99.90;;;;;;6282494;28;20283;-57
2022/04/18 04:59:23;;;;;;;16.07;14.37;;;5.40;99.90;;;;;;6281927;28;20261;-56
2022/04/18 05:02:26;;;;;;;17.03;14.37;;;5.20;99.90;;;;;;6277840;28;20310;-57
2022/04/18 05:05:29;;;;;;;21.93;14.80;;;5.20;99.90;;;;;;6281188;28;20241;-57
2022/04/18 05:08:32;;;;;;;16.83;13.53;;;5.50;99.90;;;;;;6281417;28;20459;-56
2022/04/18 05:11:36;;;;;;;16.63;14.87;;;5.50;99.90;;;;;;6269445;28;20260;-55
2022/04/18 05:14:39;;;;;;;17.00;13.70;;;5.30;99.90;;;;;;6287628;28;20317;-56
2022/04/18 05:17:41;;;;;;;16.53;13.17;;;5.50;99.90;;;;;;6285718;28;20328;-56
2022/04/18 05:20:46;;;;;;;14.93;13.23;;;5.40;99.90;;;;;;6285387;28;20285;-56
2022/04/18 05:23:49;;;;;;;17.87;14.77;;;5.50;99.90;;;;;;6285715;28;20521;-57
2022/04/18 05:26:53;;;;;;;17.83;14.37;;;5.30;99.90;;;;;;6280968;28;20704;-57
2022/04/18 05:29:56;;;;;;;17.10;13.33;;;5.50;99.90;;;;;;6287762;28;20290;-55
2022/04/18 05:32:59;;;;;;;18.37;14.63;;;5.60;99.90;;;;;;6291551;28;20730;-56
2022/04/18 05:36:02;;;;;;;15.90;13.77;;;5.70;99.90;;;;;;6295591;28;20308;-58
2022/04/18 05:39:04;;;;;;;16.63;13.37;;;6.10;99.90;;;;;;6287175;28;20245;-57
2022/04/18 05:42:08;;;;;;;14.43;12.50;;;5.80;99.90;;;;;;6285206;28;20251;-56
2022/04/18 05:45:11;;;;;;;17.17;14.17;;;6.00;99.90;;;;;;6283837;28;20324;-56
2022/04/18 05:48:14;;;;;;;19.20;13.77;;;6.30;99.90;;;;;;6285356;28;20293;-56
2022/04/18 05:51:17;;;;;;;16.00;14.23;;;6.30;99.90;;;;;;6291032;28;20507;-56
2022/04/18 05:54:20;;;;;;;15.20;13.60;;;6.40;99.90;;;;;;6284875;28;20508;-57
2022/04/18 05:57:24;;;;;;;15.13;12.73;;;6.60;99.90;;;;;;6286121;28;20380;-55
2022/04/18 06:00:27;;;;;;;18.30;13.93;;;6.70;99.90;;;;;;6291465;28;20327;-58
2022/04/18 06:03:30;;;;;;;16.87;13.73;;;6.90;99.90;;;;;;6285700;28;20287;-57
2022/04/18 06:06:32;;;;;;;16.93;13.60;;;7.00;99.90;;;;;;6285505;28;20476;-57
2022/04/18 06:09:35;;;;;;;16.37;14.70;;;7.40;99.90;;;;;;6276125;28;20324;-56
2022/04/18 06:12:40;;;;;;;15.40;13.77;;;7.60;99.90;;;;;;6284699;28;20245;-57
2022/04/18 06:15:43;;;;;;;17.73;14.40;;;7.80;99.90;;;;;;6278147;28;20241;-55
2022/04/18 06:18:46;;;;;;;18.87;15.13;;;8.10;99.90;;;;;;6284630;28;20716;-54
2022/04/18 06:21:49;;;;;;;16.27;13.63;;;8.30;99.90;;;;;;6282853;28;20308;-57
2022/04/18 06:24:52;;;;;;;13.90;12.27;;;8.50;99.90;;;;;;6281949;28;22126;-55
2022/04/18 06:27:56;;;;;;;14.73;13.20;;;8.90;99.90;;;;;;6281507;28;20741;-56
2022/04/18 06:30:59;;;;;;;15.67;12.57;;;10.00;99.90;;;;;;6287054;28;20233;-56
2022/04/18 06:34:01;;;;;;;15.47;12.60;;;10.30;99.90;;;;;;6281738;28;20229;-56
2022/04/18 06:37:05;;;;;;;14.77;12.87;;;10.40;99.90;;;;;;6285046;28;20295;-56
2022/04/18 06:40:08;;;;;;;13.67;11.90;;;10.20;99.90;;;;;;6288806;28;20244;-57
2022/04/18 06:43:12;;;;;;;13.27;11.97;;;10.20;99.90;;;;;;6280569;28;20314;-55
2022/04/18 06:46:15;;;;;;;13.00;11.60;;;10.40;99.90;;;;;;6284324;28;20346;-55
2022/04/18 06:49:17;;;;;;;12.63;11.30;;;10.50;99.90;;;;;;6284150;28;20726;-57
2022/04/18 06:52:22;;;;;;;13.17;11.30;;;10.60;99.90;;;;;;6283003;28;20245;-56
2022/04/18 06:55:24;;;;;;;13.77;11.87;;;10.60;99.90;;;;;;6282802;28;20318;-57
2022/04/18 06:58:29;;;;;;;13.43;12.03;;;10.70;99.90;;;;;;6287907;28;20248;-57
2022/04/18 07:01:31;;;;;;;13.40;12.03;;;10.70;99.90;;;;;;6281491;28;20370;-56
2022/04/18 07:04:35;;;;;;;11.97;10.93;;;10.70;99.90;;;;;;6290584;28;20278;-55
2022/04/18 07:07:44;;;;;;;13.03;11.73;;;10.60;99.90;;;;;;6281074;28;20379;-56
2022/04/18 07:10:47;;;;;;;11.53;10.37;;;10.60;99.90;;;;;;6286400;28;20298;-55
2022/04/18 07:13:51;;;;;;;10.37;9.43;;;10.60;99.90;;;;;;6280631;28;20324;-56
2022/04/18 07:16:54;;;;;;;9.33;8.47;;;10.80;99.90;;;;;;6280905;28;20308;-56
2022/04/18 07:19:56;;;;;;;9.37;8.43;;;10.80;99.90;;;;;;6283290;28;20247;-56
2022/04/18 07:22:59;;;;;;;9.77;8.97;;;10.60;99.90;;;;;;6282959;28;20233;-57
2022/04/18 07:26:02;;;;;;;9.53;8.70;;;10.70;99.90;;;;;;6284433;28;20379;-57
2022/04/18 07:29:06;;;;;;;10.27;9.23;;;10.60;99.90;;;;;;6282329;28;20363;-55
2022/04/18 07:32:09;;;;;;;10.30;9.40;;;10.60;99.90;;;;;;6283131;28;20392;-55
2022/04/18 07:35:13;;;;;;;9.37;8.27;;;10.60;99.90;;;;;;6278203;28;20306;-55
2022/04/18 07:41:36;;;;;;;11.57;9.20;;;10.70;99.90;;;;;;6283315;28;20233;-55
2022/04/18 07:44:40;;;;;;;8.83;7.97;;;10.80;99.90;;;;;;6277458;28;20232;-56
2022/04/18 07:47:43;;;;;;;10.13;9.27;;;10.90;99.90;;;;;;6283569;28;20320;-57
2022/04/18 07:54:08;;;;;;;9.73;8.80;;;11.10;99.90;;;;;;6275098;28;20687;-55
2022/04/18 07:57:11;;;;;;;9.80;8.90;;;11.30;99.90;;;;;;6281979;28;20233;-57
2022/04/18 08:00:15;;;;;;;9.70;8.90;;;11.40;99.90;;;;;;6282718;28;20499;-55
2022/04/18 08:03:18;;;;;;;10.00;9.00;;;11.60;99.90;;;;;;6285683;28;20375;-55
2022/04/18 08:06:21;;;;;;;9.67;8.70;;;11.70;99.90;;;;;;6285233;28;20245;-58
2022/04/18 08:09:24;;;;;;;9.83;9.03;;;11.70;99.90;;;;;;6282324;28;20316;-55
2022/04/18 08:12:26;;;;;;;9.70;8.80;;;11.80;99.90;;;;;;6283203;28;20253;-57
2022/04/18 08:15:31;;;;;;;10.50;9.37;;;11.90;99.90;;;;;;6286285;28;20329;-55
2022/04/18 08:18:36;;;;;;;10.07;9.27;;;12.00;99.90;;;;;;6278498;28;20230;-55
2022/04/18 08:21:39;;;;;;;8.47;7.87;;;12.10;99.90;;;;;;6274789;28;20484;-56
2022/04/18 08:24:42;;;;;;;8.80;7.93;;;12.20;99.90;;;;;;6282260;28;20259;-57
2022/04/18 08:27:44;;;;;;;7.53;7.00;;;12.30;99.90;;;;;;6277206;28;20738;-56
2022/04/18 08:30:48;;;;;;;7.10;6.40;;;12.50;99.90;;;;;;6285124;28;20312;-57
2022/04/18 08:33:51;;;;;;;7.13;6.53;;;12.70;99.90;;;;;;6282379;28;20808;-57
2022/04/18 08:36:54;;;;;;;6.83;6.17;;;12.90;99.90;;;;;;6280649;28;20242;-55
2022/04/18 08:39:57;;;;;;;7.37;6.63;;;13.00;99.90;;;;;;6286302;28;20565;-56
2022/04/18 08:43:00;;;;;;;7.90;7.30;;;13.00;99.90;;;;;;6282818;28;20313;-56
2022/04/18 08:46:06;;;;;;;5.57;5.17;;;13.00;99.90;;;;;;6282124;28;20234;-57
2022/04/18 08:55:54;;;;;;;4.53;4.33;;;13.30;99.90;;;;;;6286366;28;20245;-57
2022/04/18 08:58:57;;;;;;;4.43;4.20;;;13.40;99.90;;;;;;6286375;28;20814;-59
2022/04/18 09:02:02;;;;;;;4.53;4.27;;;13.60;99.90;;;;;;6287615;28;20229;-58
2022/04/18 09:05:10;;;;;;;4.60;4.30;;;13.70;99.90;;;;;;6282618;28;20233;-57
2022/04/18 09:08:13;;;;;;;4.40;4.20;;;13.60;99.90;;;;;;6287058;28;20801;-57
2022/04/18 09:11:27;;;;;;;7.17;5.07;;;13.60;99.90;;;;;;6290042;28;20308;-56
2022/04/18 09:14:31;;;;;;;5.93;5.53;;;13.50;99.90;;;;;;6281469;28;20332;-56
2022/04/18 09:17:37;;;;;;;6.07;5.67;;;13.60;99.90;;;;;;6285811;28;20316;-58
2022/04/18 09:20:44;;;;;;;5.37;4.97;;;13.60;99.90;;;;;;6285740;28;20795;-57
2022/04/18 09:23:50;;;;;;;4.83;4.60;;;13.60;99.90;;;;;;6278366;28;20638;-58
2022/04/18 09:26:53;;;;;;;3.70;3.50;;;13.50;99.90;;;;;;6283893;28;20237;-57
2022/04/18 09:30:04;;;;;;;4.20;4.10;;;13.60;99.90;;;;;;6299625;28;20383;-57
2022/04/18 09:33:08;;;;;;;4.47;4.27;;;13.70;99.90;;;;;;6297799;28;20257;-57
2022/04/18 09:36:13;;;;;;;5.27;4.97;;;13.80;99.90;;;;;;6283755;28;20440;-56
2022/04/18 09:39:24;;;;;;;5.10;4.90;;;14.00;99.90;;;;;;6289280;28;20753;-56
2022/04/18 09:42:29;;;;;;;5.10;4.90;;;14.10;99.90;;;;;;6292245;28;20240;-60
2022/04/18 09:45:32;;;;;;;5.47;5.17;;;14.20;99.90;;;;;;6284601;28;20501;-57
2022/04/18 09:48:36;;;;;;;5.93;5.33;;;14.30;99.90;;;;;;6286325;28;20248;-57
2022/04/18 09:51:42;;;;;;;4.67;4.33;;;14.50;99.90;;;;;;6285886;28;20252;-56
2022/04/18 09:54:46;;;;;;;5.43;5.10;;;14.60;99.90;;;;;;6279635;28;20650;-57
2022/04/18 09:57:54;;;;;;;5.20;5.00;;;14.80;99.90;;;;;;6285281;28;20241;-57
2022/04/18 10:01:17;;;;;;;5.90;4.63;;;14.90;99.90;;;;;;6281350;28;20653;-57
2022/04/18 10:04:22;;;;;;;4.80;4.60;;;14.90;99.90;;;;;;6283301;28;20696;-56
2022/04/18 10:07:25;;;;;;;4.53;4.23;;;14.80;99.90;;;;;;6292916;28;20617;-57
2022/04/18 10:10:28;;;;;;;4.37;4.17;;;15.00;99.90;;;;;;6289427;28;20732;-57
2022/04/18 10:13:33;;;;;;;3.80;3.70;;;15.10;99.90;;;;;;6282487;28;20241;-56
2022/04/18 10:16:36;;;;;;;4.03;3.77;;;15.20;99.90;;;;;;6288942;28;20616;-56
2022/04/18 10:20:06;;;;;;;4.73;4.33;;;15.30;99.90;;;;;;6284291;28;20225;-55
2022/04/18 10:23:27;;;;;;;4.77;4.47;;;15.30;99.90;;;;;;6283785;28;20306;-56
2022/04/18 10:26:57;;;;;;;3.17;3.10;;;15.20;99.90;;;;;;6278603;28;20884;-57
2022/04/18 10:30:02;;;;;;;3.27;3.17;;;15.20;99.90;;;;;;6278328;28;20233;-56
2022/04/18 10:33:05;;;;;;;3.40;3.30;;;15.30;99.90;;;;;;6284846;28;20270;-56
2022/04/18 10:36:10;;;;;;;3.03;2.93;;;15.50;99.90;;;;;;6283208;28;20320;-56
2022/04/18 10:39:13;;;;;;;3.27;3.07;;;15.70;99.90;;;;;;6288490;28;20237;-57
2022/04/18 10:42:21;;;;;;;2.90;2.80;;;15.80;99.90;;;;;;6288023;28;20236;-56
2022/04/18 10:45:24;;;;;;;3.67;3.37;;;15.80;99.90;;;;;;6287421;28;20241;-56
2022/04/18 10:48:34;;;;;;;2.67;2.57;;;15.70;99.90;;;;;;6292991;28;20233;-56
2022/04/18 10:51:40;;;;;;;2.97;2.87;;;15.80;99.90;;;;;;6284792;28;20312;-57
2022/04/18 10:55:00;;;;;;;3.27;3.07;;;15.80;99.90;;;;;;6274003;28;20241;-56
2022/04/18 10:58:11;;;;;;;2.67;2.57;;;15.70;99.90;;;;;;6283363;28;20282;-55
2022/04/18 11:01:15;;;;;;;2.60;2.50;;;15.50;99.90;;;;;;6283723;28;20230;-55
2022/04/18 11:04:18;;;;;;;2.60;2.50;;;15.50;99.90;;;;;;6283759;28;20282;-56
2022/04/18 11:07:38;;;;;;;2.17;2.17;;;15.70;99.90;;;;;;6285975;28;20583;-57
2022/04/18 11:10:45;;;;;;;2.70;2.60;;;15.80;99.90;;;;;;6289954;28;20241;-57
2022/04/18 11:13:49;;;;;;;2.90;2.70;;;15.80;99.90;;;;;;6288450;28;20375;-57
2022/04/18 11:17:00;;;;;;;3.60;2.80;;;15.90;99.90;;;;;;6283828;28;20313;-55
2022/04/18 11:20:25;;;;;;;2.80;2.70;;;15.90;99.90;;;;;;6281680;28;20335;-57
2022/04/18 11:23:30;;;;;;;2.97;2.73;;;15.90;99.90;;;;;;6282916;28;20279;-56
2022/04/18 11:26:33;;;;;;;2.60;2.60;;;16.00;99.90;;;;;;6286649;28;20240;-56
2022/04/18 11:29:37;;;;;;;2.83;2.73;;;16.10;99.90;;;;;;6281605;28;20255;-56
2022/04/18 11:32:42;;;;;;;2.77;2.67;;;16.30;99.90;;;;;;6274844;28;20240;-58
2022/04/18 11:35:49;;;;;;;2.67;2.67;;;16.50;99.90;;;;;;6289667;28;20233;-55
2022/04/18 11:39:05;;;;;;;2.80;2.70;;;16.50;99.90;;;;;;6279980;28;20760;-56
2022/04/18 11:42:08;;;;;;;3.30;3.10;;;16.60;99.90;;;;;;6282569;28;20338;-57
2022/04/18 11:45:20;;;;;;;2.97;2.87;;;16.60;99.90;;;;;;6282265;28;20363;-56
2022/04/18 11:48:23;;;;;;;3.37;3.13;;;16.50;99.90;;;;;;6280736;28;20321;-57
2022/04/18 11:51:37;;;;;;;3.07;2.97;;;16.30;99.90;;;;;;6282411;28;20241;-56
2022/04/18 11:54:54;;;;;;;3.13;3.00;;;16.40;99.90;;;;;;6274578;28;20332;-57
2022/04/18 11:57:57;;;;;;;3.30;3.20;;;16.50;99.90;;;;;;6287697;28;20394;-57
2022/04/18 12:07:42;;;;;;;2.93;2.73;;;16.80;99.90;;;;;;6286960;28;20278;-56
2022/04/18 12:10:47;;;;;;;4.73;3.70;;;16.90;99.90;;;;;;6282927;28;20302;-56
2022/04/18 12:13:49;;;;;;;3.20;3.10;;;16.90;99.90;;;;;;6281908;28;20237;-56
2022/04/18 12:17:00;;;;;;;3.10;3.00;;;17.00;99.90;;;;;;6284594;28;20237;-57
2022/04/18 12:20:25;;;;;;;3.00;2.90;;;17.00;99.90;;;;;;6282018;28;20697;-57
2022/04/18 12:23:28;;;;;;;3.60;3.30;;;17.00;99.90;;;;;;6281896;28;20733;-56
2022/04/18 12:26:34;;;;;;;3.30;2.93;;;17.00;99.90;;;;;;6277457;28;20319;-56
2022/04/18 12:29:38;;;;;;;2.90;2.80;;;16.90;99.90;;;;;;6276152;28;20710;-58
2022/04/18 12:32:41;;;;;;;3.20;3.10;;;17.10;99.90;;;;;;6274062;28;20318;-55
2022/04/18 12:35:46;;;;;;;2.20;2.20;;;17.20;99.90;;;;;;6273674;28;20355;-55
2022/04/18 12:38:49;;;;;;;2.93;2.83;;;17.10;99.90;;;;;;6285334;28;20310;-56
2022/04/18 12:42:02;;;;;;;2.50;2.40;;;17.20;99.90;;;;;;6268844;28;20698;-56
2022/04/18 12:45:06;;;;;;;2.80;2.70;;;17.20;99.90;;;;;;6281024;28;20267;-56
2022/04/18 12:48:09;;;;;;;2.80;2.70;;;17.20;99.90;;;;;;6282960;28;20225;-55
2022/04/18 12:51:13;;;;;;;4.83;2.60;;;17.20;99.90;;;;;;6280769;28;20316;-54
2022/04/18 12:54:19;;;;;;;2.60;2.40;;;17.30;99.90;;;;;;6282874;28;20229;-58
2022/04/18 12:57:23;;;;;;;2.27;2.17;;;17.40;99.90;;;;;;6284781;28;20415;-55
2022/04/18 13:00:34;;;;;;;2.77;2.70;;;17.50;99.90;;;;;;6278842;28;20538;-56
2022/04/18 13:03:44;;;;;;;2.17;2.07;;;17.70;99.90;;;;;;6283701;28;20248;-56
2022/04/18 13:06:56;;;;;;;3.07;2.97;;;17.70;99.90;;;;;;6274576;28;20255;-57
2022/04/18 13:10:02;;;;;;;2.43;2.43;;;17.70;99.90;;;;;;6287597;28;20324;-57
2022/04/18 13:13:08;;;;;;;2.13;2.13;;;17.60;99.90;;;;;;6284048;28;20248;-56
2022/04/18 13:16:22;;;;;;;2.43;2.30;;;17.70;99.90;;;;;;6280570;28;20261;-56
2022/04/18 13:19:25;;;;;;;2.10;2.10;;;17.60;99.90;;;;;;6252545;28;20238;-56
2022/04/18 13:22:28;;;;;;;2.07;2.07;;;17.60;99.90;;;;;;6254480;28;20343;-55
2022/04/18 13:25:31;;;;;;;2.13;2.13;;;17.50;99.90;;;;;;6257233;28;20238;-56
2022/04/18 13:28:38;;;;;;;2.20;2.20;;;17.50;99.90;;;;;;6263159;28;20773;-56
2022/04/18 13:31:41;;;;;;;2.23;2.23;;;17.50;99.90;;;;;;6258245;28;20318;-55
2022/04/18 13:34:44;;;;;;;2.37;2.23;;;17.40;99.90;;;;;;6256497;28;20245;-56
2022/04/18 13:37:47;;;;;;;2.03;1.97;;;17.40;99.90;;;;;;6262737;28;20757;-56
2022/04/18 13:40:50;;;;;;;2.13;2.03;;;17.40;99.90;;;;;;6269515;28;20313;-55
2022/04/18 13:43:54;;;;;;;2.00;2.00;;;17.60;99.90;;;;;;6262940;28;20713;-56
2022/04/18 13:46:57;;;;;;;2.10;2.10;;;17.70;99.90;;;;;;6264274;28;20419;-56
2022/04/18 13:50:00;;;;;;;2.10;2.03;;;17.80;99.90;;;;;;6263293;28;20241;-55
2022/04/18 13:53:03;;;;;;;2.30;2.30;;;17.90;99.90;;;;;;6260669;28;20717;-56
2022/04/18 13:56:06;;;;;;;1.90;1.90;;;17.80;99.90;;;;;;6264333;28;20253;-56
2022/04/18 13:59:10;;;;;;;2.40;2.40;;;17.90;99.90;;;;;;6258510;28;20364;-56
2022/04/18 14:02:13;;;;;;;4.83;4.60;;;17.90;99.90;;;;;;6261869;28;20607;-56
2022/04/18 14:05:16;;;;;;;4.50;4.07;;;17.90;99.90;;;;;;6284009;28;20981;-56
2022/04/18 14:08:19;;;;;;;3.23;3.13;;;17.80;99.90;;;;;;6288485;28;20260;-56
2022/04/18 14:11:23;;;;;;;2.80;2.70;;;17.80;99.90;;;;;;6284526;28;20284;-55
2022/04/18 14:21:09;;;;;;;2.53;2.43;;;17.70;99.90;;;;;;6260387;28;20738;-56
2022/04/18 14:24:12;;;;;;;2.40;2.40;;;17.70;99.90;;;;;;6258224;28;20788;-57
2022/04/18 14:27:15;;;;;;;2.50;2.40;;;17.70;99.90;;;;;;6267899;28;20284;-56
2022/04/18 14:30:20;;;;;;;2.60;2.50;;;17.60;99.90;;;;;;6258671;28;20244;-56
2022/04/18 14:33:24;;;;;;;2.73;2.73;;;17.70;99.90;;;;;;6263890;28;20536;-55
2022/04/18 14:36:27;;;;;;;2.30;2.30;;;17.70;99.90;;;;;;6267845;28;20470;-57
2022/04/18 14:39:30;;;;;;;2.00;2.00;;;17.70;99.90;;;;;;6260282;28;20233;-56
2022/04/18 14:42:33;;;;;;;2.07;2.07;;;17.60;99.90;;;;;;6258328;28;20725;-56
2022/04/18 14:45:37;;;;;;;2.23;2.23;;;17.60;99.90;;;;;;6255644;28;20353;-56
2022/04/18 14:48:39;;;;;;;1.93;1.93;;;17.80;99.90;;;;;;6258206;28;20328;-56
2022/04/18 14:51:42;;;;;;;1.70;1.70;;;18.20;99.90;;;;;;6263304;28;20237;-56
2022/04/18 14:54:45;;;;;;;2.07;2.07;;;18.30;99.90;;;;;;6258702;28;20431;-57
2022/04/18 14:57:49;;;;;;;2.03;1.97;;;18.20;99.90;;;;;;6257721;28;20742;-56
2022/04/18 15:00:53;;;;;;;2.13;2.03;;;18.20;99.90;;;;;;6260121;28;20553;-56
2022/04/18 15:03:56;;;;;;;2.33;2.20;;;18.10;99.90;;;;;;6281464;28;20236;-55
2022/04/18 15:06:59;;;;;;;2.60;2.50;;;18.10;99.90;;;;;;6257789;28;20238;-56
2022/04/18 15:10:02;;;;;;;2.37;2.30;;;18.10;99.90;;;;;;6267914;28;20283;-56
2022/04/18 15:13:05;;;;;;;2.33;2.23;;;17.90;99.90;;;;;;6277600;28;20241;-55
2022/04/18 15:16:11;;;;;;;4.60;4.30;;;18.10;99.90;;;;;;6280944;28;20229;-57
2022/04/18 15:19:24;;;;;;;4.60;3.57;;;18.10;99.90;;;;;;6280320;28;20225;-56
2022/04/18 15:22:28;;;;;;;2.27;2.27;;;18.20;99.90;;;;;;6280431;28;20475;-57
2022/04/18 15:25:30;;;;;;;2.30;2.30;;;18.20;99.90;;;;;;6281593;28;20737;-56
2022/04/18 15:28:33;;;;;;;2.03;2.03;;;18.20;99.90;;;;;;6274961;28;20264;-56
2022/04/18 15:34:58;;;;;;;2.17;2.07;;;18.00;99.90;;;;;;6278533;28;20234;-56
2022/04/18 15:38:10;;;;;;;2.27;2.27;;;17.80;99.90;;;;;;6288498;28;20243;-56
2022/04/18 15:41:12;;;;;;;2.77;2.77;;;17.80;99.90;;;;;;6286860;28;20301;-56
2022/04/18 15:44:15;;;;;;;2.60;2.60;;;17.80;99.90;;;;;;6277378;28;20512;-56
2022/04/18 15:47:19;;;;;;;2.40;2.33;;;17.70;99.90;;;;;;6287009;28;20248;-56
2022/04/18 15:50:22;;;;;;;2.33;2.20;;;17.60;99.90;;;;;;6283214;28;20241;-56
2022/04/18 15:53:25;;;;;;;2.20;2.10;;;17.50;99.90;;;;;;6282508;28;20244;-56
2022/04/18 15:56:28;;;;;;;2.40;2.30;;;17.40;99.90;;;;;;6284216;28;20322;-55
2022/04/18 15:59:31;;;;;;;2.40;2.40;;;17.30;99.90;;;;;;6285032;28;21203;-56
2022/04/18 16:02:38;;;;;;;2.30;2.30;;;17.10;99.90;;;;;;6277623;28;20237;-57
2022/04/18 16:05:43;;;;;;;2.30;2.20;;;17.00;99.90;;;;;;6282046;28;20335;-56
2022/04/18 16:08:46;;;;;;;2.40;2.40;;;16.80;99.90;;;;;;6285925;28;20820;-57
2022/04/18 16:11:49;;;;;;;2.50;2.40;;;16.60;99.90;;;;;;6280120;28;20298;-56
2022/04/18 16:14:52;;;;;;;2.60;2.50;;;16.50;99.90;;;;;;6278963;28;20294;-56
2022/04/18 16:17:57;;;;;;;2.27;2.27;;;16.40;99.90;;;;;;6280968;28;20789;-56
2022/04/18 16:21:05;;;;;;;2.53;2.43;;;16.30;99.90;;;;;;6279480;28;20753;-56
2022/04/18 16:24:09;;;;;;;3.20;2.90;;;16.20;99.90;;;;;;6279435;28;20545;-55
2022/04/18 16:27:12;;;;;;;2.60;2.60;;;16.10;99.90;;;;;;6284428;28;20305;-55
2022/04/18 16:33:37;;;;;;;2.67;2.57;;;15.90;99.90;;;;;;6284305;28;20303;-56
2022/04/18 16:36:40;;;;;;;2.57;2.47;;;15.70;99.90;;;;;;6274122;28;20317;-56
2022/04/18 16:39:43;;;;;;;2.53;2.40;;;15.70;99.90;;;;;;6284904;28;20302;-56
2022/04/18 16:46:07;;;;;;;2.60;2.50;;;15.50;99.90;;;;;;6280341;28;20310;-57